Time;durP1;ratioP1;P1;durP2;ratioP2;P2;SDS_P1;SDS_P2;PMS_P1;PMS_P2;Temp;Humidity;BMP_temperature;BMP_pressure;BME280_temperature;BME280_humidity;BME280_pressure;Samples;Min_cycle;Max_cycle;Signal;HPM_P1;HPM_P2
2022/10/04 00:01:05;;;;;;;6.40;1.70;;;11.40;99.90;;;;;;5049025;28;20291;-47
2022/10/04 00:03:37;;;;;;;8.70;1.97;;;11.40;99.90;;;;;;5076725;28;20209;-47
2022/10/04 00:06:05;;;;;;;3.60;1.40;;;11.30;99.90;;;;;;5069776;28;20292;-45
2022/10/04 00:08:41;;;;;;;4.63;1.40;;;11.30;99.90;;;;;;5062849;28;20211;-47
2022/10/04 00:11:15;;;;;;;6.13;2.10;;;11.30;99.90;;;;;;5061561;28;20191;-45
2022/10/04 00:13:49;;;;;;;7.60;1.83;;;11.20;99.90;;;;;;5054347;28;20209;-46
2022/10/04 00:16:23;;;;;;;9.23;1.90;;;11.20;99.90;;;;;;5050462;28;20207;-45
2022/10/04 00:19:01;;;;;;;6.67;1.97;;;11.20;99.90;;;;;;5062779;28;20225;-48
2022/10/04 00:22:11;;;;;;;3.00;1.60;;;11.20;99.90;;;;;;5069010;28;20569;-45
2022/10/04 00:24:58;;;;;;;5.67;1.93;;;11.20;99.90;;;;;;5064663;28;20277;-46
2022/10/04 00:27:28;;;;;;;4.63;1.60;;;11.20;99.90;;;;;;5063191;28;20703;-45
2022/10/04 00:30:21;;;;;;;8.43;2.77;;;11.20;99.90;;;;;;5036957;28;21176;-45
2022/10/04 00:33:00;;;;;;;7.20;2.10;;;11.10;99.90;;;;;;5054793;28;20281;-50
2022/10/04 00:35:50;;;;;;;8.43;2.20;;;11.10;99.90;;;;;;5060063;28;20207;-45
2022/10/04 00:38:25;;;;;;;3.63;2.20;;;11.10;99.90;;;;;;5062858;28;20603;-45
2022/10/04 00:41:00;;;;;;;5.30;1.90;;;11.10;99.90;;;;;;5059030;28;20776;-46
2022/10/04 00:43:33;;;;;;;2.67;2.20;;;11.10;99.90;;;;;;5056268;28;20224;-46
2022/10/04 00:46:05;;;;;;;6.73;1.93;;;11.10;99.90;;;;;;5046209;28;20225;-45
2022/10/04 00:48:44;;;;;;;4.73;1.73;;;11.10;99.90;;;;;;5067644;28;20229;-50
2022/10/04 00:51:19;;;;;;;5.07;2.03;;;11.10;99.90;;;;;;5063228;28;20218;-45
2022/10/04 00:54:01;;;;;;;3.93;2.07;;;11.00;99.90;;;;;;5070450;28;20275;-49
2022/10/04 00:56:36;;;;;;;5.27;1.90;;;11.00;99.90;;;;;;5066396;28;20201;-45
2022/10/04 00:59:13;;;;;;;5.07;2.20;;;11.00;99.90;;;;;;5055550;28;20515;-45
2022/10/04 01:01:43;;;;;;;3.67;1.90;;;11.00;99.90;;;;;;5049024;28;20228;-47
2022/10/04 01:04:31;;;;;;;4.97;1.90;;;10.90;99.90;;;;;;5063659;28;20179;-47
2022/10/04 01:07:01;;;;;;;4.97;2.07;;;10.90;99.90;;;;;;5057229;28;20210;-45
2022/10/04 01:09:29;;;;;;;9.80;2.23;;;10.80;99.90;;;;;;5058368;28;20209;-45
2022/10/04 01:12:02;;;;;;;6.33;2.30;;;10.80;99.90;;;;;;5063821;28;20186;-46
2022/10/04 01:14:38;;;;;;;4.03;2.03;;;10.90;99.90;;;;;;5058612;28;20194;-47
2022/10/04 01:17:05;;;;;;;3.40;2.20;;;10.90;99.90;;;;;;5049809;28;20710;-47
2022/10/04 01:19:33;;;;;;;6.67;2.17;;;10.90;99.90;;;;;;5067057;28;20288;-46
2022/10/04 01:22:10;;;;;;;6.27;2.43;;;10.80;99.90;;;;;;5064895;28;20972;-47
2022/10/04 01:24:40;;;;;;;3.47;2.17;;;10.80;99.90;;;;;;5070326;28;20198;-45
2022/10/04 01:27:23;;;;;;;8.33;2.07;;;;;;;;;;5053600;28;20679;-45
2022/10/04 01:29:50;;;;;;;6.23;2.43;;;10.90;99.90;;;;;;5056784;28;20211;-47
2022/10/04 01:32:17;;;;;;;4.87;2.07;;;11.00;99.90;;;;;;5057662;28;20214;-46
2022/10/04 01:34:44;;;;;;;7.37;2.60;;;10.90;99.90;;;;;;5063645;28;20569;-46
2022/10/04 01:37:13;;;;;;;4.93;2.13;;;10.70;99.90;;;;;;5060246;28;20226;-45
2022/10/04 01:39:41;;;;;;;8.03;2.37;;;10.80;99.90;;;;;;5062165;28;20273;-49
2022/10/04 01:42:13;;;;;;;6.07;1.77;;;10.70;99.90;;;;;;5065580;28;20214;-46
2022/10/04 01:44:51;;;;;;;4.63;2.10;;;10.50;99.90;;;;;;5060711;28;20277;-48
2022/10/04 01:47:31;;;;;;;4.83;2.07;;;10.50;99.90;;;;;;5047318;28;20218;-45
2022/10/04 01:50:01;;;;;;;3.67;1.83;;;10.60;99.90;;;;;;5065132;28;20277;-45
2022/10/04 01:52:34;;;;;;;4.20;2.07;;;10.60;99.90;;;;;;5062053;28;20194;-49
2022/10/04 01:55:06;;;;;;;5.30;2.10;;;10.50;99.90;;;;;;5070975;28;20264;-45
2022/10/04 01:57:38;;;;;;;4.83;2.03;;;10.50;99.90;;;;;;5042404;28;20202;-47
2022/10/04 02:00:08;;;;;;;3.30;2.03;;;10.50;99.90;;;;;;5056951;28;20195;-47
2022/10/04 02:02:40;;;;;;;3.67;1.93;;;10.50;99.90;;;;;;5056754;28;20613;-48
2022/10/04 02:05:11;;;;;;;4.37;2.67;;;10.50;99.90;;;;;;5063568;28;20194;-45
2022/10/04 02:07:40;;;;;;;3.97;2.10;;;10.50;99.90;;;;;;5058215;28;20234;-47
2022/10/04 02:10:12;;;;;;;4.77;2.20;;;10.50;99.90;;;;;;5064556;28;20672;-46
2022/10/04 02:12:46;;;;;;;4.97;2.10;;;10.40;99.90;;;;;;5041970;28;20191;-47
2022/10/04 02:15:14;;;;;;;3.70;2.00;;;10.40;99.90;;;;;;5044030;28;20227;-46
2022/10/04 02:17:43;;;;;;;6.83;2.70;;;10.40;99.90;;;;;;5049693;28;20203;-50
2022/10/04 02:20:15;;;;;;;6.17;2.27;;;10.30;99.90;;;;;;5076171;28;20659;-45
2022/10/04 02:22:43;;;;;;;4.07;2.40;;;10.30;99.90;;;;;;5064303;28;20765;-50
2022/10/04 02:25:14;;;;;;;8.67;2.27;;;10.40;99.90;;;;;;5052851;28;20544;-45
2022/10/04 02:27:41;;;;;;;6.77;2.50;;;10.40;99.90;;;;;;5060800;28;20222;-46
2022/10/04 02:30:10;;;;;;;4.73;2.60;;;10.40;99.90;;;;;;5064577;28;20197;-47
2022/10/04 02:35:24;;;;;;;7.30;2.60;;;10.50;99.90;;;;;;5055684;28;20214;-45
2022/10/04 02:38:00;;;;;;;6.60;2.70;;;10.60;99.90;;;;;;5063193;28;20214;-45
2022/10/04 02:40:33;;;;;;;5.70;2.73;;;10.60;99.90;;;;;;5060927;28;20829;-46
2022/10/04 02:43:04;;;;;;;8.67;2.70;;;10.60;99.90;;;;;;5062765;28;20592;-44
2022/10/04 02:45:39;;;;;;;3.37;2.63;;;10.60;99.90;;;;;;5061689;28;20562;-46
2022/10/04 02:48:22;;;;;;;8.30;2.67;;;10.60;99.90;;;;;;5064063;28;20214;-45
2022/10/04 02:50:53;;;;;;;7.23;2.67;;;10.60;99.90;;;;;;5047291;28;20202;-46
2022/10/04 02:53:26;;;;;;;9.27;2.73;;;10.60;99.90;;;;;;5071332;28;20199;-47
2022/10/04 02:55:55;;;;;;;3.93;2.40;;;10.60;99.90;;;;;;5058532;28;20190;-47
2022/10/04 02:58:24;;;;;;;7.00;3.50;;;10.70;99.90;;;;;;5064489;28;20206;-49
2022/10/04 03:00:56;;;;;;;6.33;2.73;;;10.70;99.90;;;;;;5060302;28;20240;-45
2022/10/04 03:03:26;;;;;;;10.93;3.00;;;10.60;99.90;;;;;;5062780;28;20190;-45
2022/10/04 03:05:59;;;;;;;5.67;2.20;;;10.50;99.90;;;;;;5047997;28;20218;-46
2022/10/04 03:08:28;;;;;;;6.40;2.53;;;10.50;99.90;;;;;;5062775;28;20254;-46
2022/10/04 03:10:58;;;;;;;7.90;2.90;;;10.50;99.90;;;;;;5058920;28;20879;-48
2022/10/04 03:13:25;;;;;;;9.63;3.13;;;10.60;99.90;;;;;;5061395;28;20281;-49
2022/10/04 03:15:52;;;;;;;11.80;3.30;;;10.60;99.90;;;;;;5060386;28;20185;-45
2022/10/04 03:18:20;;;;;;;7.17;3.03;;;10.60;99.90;;;;;;5063905;28;20215;-46
2022/10/04 03:20:47;;;;;;;11.10;4.07;;;10.60;99.90;;;;;;5051757;28;20207;-45
2022/10/04 03:23:17;;;;;;;11.53;4.63;;;10.60;99.90;;;;;;5070914;28;20242;-44
2022/10/04 03:25:50;;;;;;;13.63;3.57;;;10.60;99.90;;;;;;5064636;28;20202;-48
2022/10/04 03:28:19;;;;;;;7.57;3.07;;;10.60;99.90;;;;;;5063571;28;20226;-45
2022/10/04 03:30:47;;;;;;;6.70;3.23;;;10.60;99.90;;;;;;5059568;28;20544;-46
2022/10/04 03:33:21;;;;;;;8.50;2.83;;;10.70;99.90;;;;;;5062534;28;20197;-46
2022/10/04 03:35:51;;;;;;;7.60;2.63;;;10.60;99.90;;;;;;5046351;28;20206;-46
2022/10/04 03:38:19;;;;;;;6.67;2.83;;;10.60;99.90;;;;;;5063109;28;20272;-45
2022/10/04 03:40:52;;;;;;;3.13;2.70;;;10.60;99.90;;;;;;5057071;28;20282;-46
2022/10/04 03:43:24;;;;;;;8.37;2.87;;;10.70;99.90;;;;;;5062621;28;20625;-44
2022/10/04 03:45:51;;;;;;;5.30;2.70;;;10.60;99.90;;;;;;5059603;28;20191;-45
2022/10/04 03:48:28;;;;;;;7.90;2.37;;;10.60;99.90;;;;;;5063160;28;20214;-51
2022/10/04 03:50:56;;;;;;;6.70;2.43;;;10.60;99.90;;;;;;5069037;28;20194;-45
2022/10/04 03:53:34;;;;;;;7.93;3.13;;;10.60;99.90;;;;;;5057850;28;20211;-49
2022/10/04 03:56:02;;;;;;;8.53;2.60;;;10.70;99.90;;;;;;5059781;28;20424;-45
2022/10/04 03:58:32;;;;;;;7.77;2.27;;;10.70;99.90;;;;;;5082303;28;20206;-46
2022/10/04 04:01:11;;;;;;;9.03;2.30;;;10.70;99.90;;;;;;5081249;28;20175;-48
2022/10/04 04:03:50;;;;;;;4.20;1.90;;;10.70;99.90;;;;;;5079314;28;20199;-48
2022/10/04 04:06:19;;;;;;;8.00;2.00;;;10.70;99.90;;;;;;5072303;28;20218;-46
2022/10/04 04:08:49;;;;;;;4.20;2.63;;;10.60;99.90;;;;;;5054128;28;20230;-45
2022/10/04 04:11:21;;;;;;;4.10;2.37;;;10.60;99.90;;;;;;5059015;28;20198;-45
2022/10/04 04:13:57;;;;;;;4.27;2.20;;;10.60;99.90;;;;;;5055820;28;20328;-45
2022/10/04 04:16:25;;;;;;;3.33;1.83;;;10.60;99.90;;;;;;5057903;28;20198;-47
2022/10/04 04:18:54;;;;;;;8.23;2.63;;;10.60;99.90;;;;;;5059486;28;20268;-46
2022/10/04 04:21:23;;;;;;;4.60;2.27;;;10.50;99.90;;;;;;5063541;28;20292;-51
2022/10/04 04:23:55;;;;;;;5.03;2.10;;;10.50;99.90;;;;;;5054520;28;20271;-45
2022/10/04 04:26:27;;;;;;;5.57;2.70;;;10.60;99.90;;;;;;5076673;28;20595;-49
2022/10/04 04:29:02;;;;;;;3.53;2.10;;;10.60;99.90;;;;;;5066940;28;20715;-47
2022/10/04 04:31:33;;;;;;;7.53;2.37;;;10.60;99.90;;;;;;5057986;28;20436;-46
2022/10/04 04:34:03;;;;;;;6.17;2.17;;;10.60;99.90;;;;;;5065866;28;20240;-46
2022/10/04 04:36:31;;;;;;;3.63;2.00;;;10.60;99.90;;;;;;5062688;28;20268;-45
2022/10/04 04:41:52;;;;;;;6.13;2.33;;;10.60;99.90;;;;;;5061055;28;20217;-48
2022/10/04 04:44:20;;;;;;;11.60;2.90;;;10.60;99.90;;;;;;5060161;28;20624;-48
2022/10/04 04:46:48;;;;;;;5.27;2.80;;;10.60;99.90;;;;;;5059957;28;20550;-46
2022/10/04 04:49:18;;;;;;;8.80;4.03;;;10.60;99.90;;;;;;5063647;28;20195;-45
2022/10/04 04:51:49;;;;;;;8.80;4.13;;;10.60;99.90;;;;;;5063136;28;20203;-47
2022/10/04 04:54:18;;;;;;;7.00;4.23;;;10.60;99.90;;;;;;5058280;28;20210;-47
2022/10/04 04:56:48;;;;;;;7.43;4.60;;;10.60;99.90;;;;;;5068567;28;20675;-48
2022/10/04 04:59:16;;;;;;;9.60;4.97;;;10.60;99.90;;;;;;5044736;28;20280;-45
2022/10/04 05:01:45;;;;;;;9.57;5.97;;;10.60;99.90;;;;;;5061997;28;20667;-45
2022/10/04 05:04:20;;;;;;;7.73;5.17;;;10.60;99.90;;;;;;5058230;28;20198;-44
2022/10/04 05:06:48;;;;;;;8.63;5.93;;;10.70;99.90;;;;;;5060845;28;20203;-47
2022/10/04 05:09:24;;;;;;;11.30;6.50;;;10.70;99.90;;;;;;5050545;28;20217;-47
2022/10/04 05:11:53;;;;;;;13.13;6.57;;;10.70;99.90;;;;;;5074814;28;20205;-49
2022/10/04 05:14:20;;;;;;;11.37;5.47;;;10.70;99.90;;;;;;5070734;28;20202;-47
2022/10/04 05:16:50;;;;;;;7.60;4.70;;;10.70;99.90;;;;;;5063074;28;20822;-46
2022/10/04 05:19:21;;;;;;;10.73;5.60;;;10.70;99.90;;;;;;5059699;28;20206;-46
2022/10/04 05:21:51;;;;;;;9.00;5.03;;;10.70;99.90;;;;;;5065742;28;20198;-50
2022/10/04 05:24:22;;;;;;;7.63;5.57;;;10.70;99.90;;;;;;5057984;28;20218;-48
2022/10/04 05:26:51;;;;;;;10.40;5.30;;;10.70;99.90;;;;;;5062394;28;20567;-47
2022/10/04 05:29:21;;;;;;;14.07;5.47;;;10.70;99.90;;;;;;5068452;28;20213;-46
2022/10/04 05:31:55;;;;;;;14.43;7.37;;;10.70;99.90;;;;;;5054598;28;20202;-48
2022/10/04 05:34:24;;;;;;;10.50;5.97;;;10.70;99.90;;;;;;5059093;28;20901;-49
2022/10/04 05:37:01;;;;;;;11.03;5.57;;;10.70;99.90;;;;;;5056363;28;20300;-48
2022/10/04 05:39:35;;;;;;;11.33;4.77;;;10.70;99.90;;;;;;5066340;28;20205;-50
2022/10/04 05:42:11;;;;;;;9.27;4.23;;;10.70;99.90;;;;;;5061796;28;20239;-49
2022/10/04 05:44:49;;;;;;;12.13;4.33;;;10.70;99.90;;;;;;5051842;28;20285;-49
2022/10/04 05:47:22;;;;;;;7.60;4.20;;;10.80;99.90;;;;;;5058046;28;20225;-46
2022/10/04 05:49:51;;;;;;;6.30;4.40;;;10.80;99.90;;;;;;5055829;28;20246;-48
2022/10/04 05:52:29;;;;;;;7.20;4.13;;;10.70;99.90;;;;;;5064537;28;20217;-46
2022/10/04 05:55:16;;;;;;;9.33;4.47;;;10.80;99.90;;;;;;5066407;28;20185;-47
2022/10/04 05:57:53;;;;;;;7.07;4.13;;;10.80;99.90;;;;;;5044831;28;20303;-46
2022/10/04 06:00:23;;;;;;;6.17;4.13;;;10.80;99.90;;;;;;5072170;28;20191;-48
2022/10/04 06:03:15;;;;;;;7.83;4.20;;;10.80;99.90;;;;;;5048167;28;20201;-47
2022/10/04 06:05:49;;;;;;;9.53;4.77;;;10.70;99.90;;;;;;5061049;28;20252;-49
2022/10/04 06:08:25;;;;;;;8.83;3.90;;;10.70;99.90;;;;;;5064964;28;20222;-45
2022/10/04 06:11:30;;;;;;;11.53;4.27;;;10.70;99.90;;;;;;5048327;28;20202;-47
2022/10/04 06:14:30;;;;;;;10.80;4.17;;;10.80;99.90;;;;;;5061855;28;20198;-46
2022/10/04 06:17:22;;;;;;;8.23;4.40;;;10.80;99.90;;;;;;5048216;28;21020;-50
2022/10/04 06:20:08;;;;;;;8.50;4.57;;;10.90;99.90;;;;;;5053822;28;20198;-45
2022/10/04 06:22:43;;;;;;;7.77;4.47;;;10.90;99.90;;;;;;5061993;28;20209;-46
2022/10/04 06:25:17;;;;;;;7.17;4.20;;;10.90;99.90;;;;;;5067376;28;20193;-45
2022/10/04 06:27:52;;;;;;;7.47;4.07;;;10.90;99.90;;;;;;5055959;28;20789;-47
2022/10/04 06:30:20;;;;;;;6.00;4.33;;;10.90;99.90;;;;;;5064248;28;20205;-46
2022/10/04 06:33:18;;;;;;;8.17;4.40;;;10.90;99.90;;;;;;5054721;28;20199;-48
2022/10/04 06:36:15;;;;;;;6.43;4.13;;;10.90;99.90;;;;;;5053733;28;20198;-45
2022/10/04 06:39:03;;;;;;;9.87;4.97;;;11.00;99.90;;;;;;5060406;28;20229;-47
2022/10/04 06:41:43;;;;;;;9.97;4.80;;;11.10;99.90;;;;;;5062733;28;20190;-48
2022/10/04 06:44:24;;;;;;;14.67;5.93;;;11.10;99.90;;;;;;5049761;28;20278;-50
2022/10/04 06:47:07;;;;;;;10.93;5.50;;;11.20;99.90;;;;;;5060924;28;20195;-47
2022/10/04 06:49:41;;;;;;;12.80;5.87;;;11.20;99.90;;;;;;5052069;28;20202;-46
2022/10/04 06:52:26;;;;;;;8.23;5.80;;;11.20;99.90;;;;;;5059163;28;20561;-45
2022/10/04 06:55:25;;;;;;;8.87;6.63;;;11.30;99.90;;;;;;5062431;28;20187;-48
2022/10/04 06:58:19;;;;;;;12.30;6.50;;;11.40;99.90;;;;;;5069069;28;20218;-46
2022/10/04 07:00:56;;;;;;;15.13;7.17;;;11.50;99.90;;;;;;5063277;28;20199;-49
2022/10/04 07:03:28;;;;;;;12.40;6.07;;;11.60;99.90;;;;;;5048177;28;20213;-47
2022/10/04 07:06:00;;;;;;;11.00;6.80;;;11.70;99.90;;;;;;5056837;28;20242;-48
2022/10/04 07:08:37;;;;;;;11.77;7.30;;;11.70;99.90;;;;;;5060219;28;20211;-45
2022/10/04 07:11:13;;;;;;;13.77;7.93;;;11.70;99.90;;;;;;5062453;28;20187;-46
2022/10/04 07:13:51;;;;;;;16.40;8.37;;;11.80;99.90;;;;;;5057102;28;20251;-45
2022/10/04 07:16:28;;;;;;;15.93;7.53;;;11.90;99.90;;;;;;5050134;28;20207;-48
2022/10/04 07:19:14;;;;;;;10.63;6.53;;;12.00;99.90;;;;;;5057339;28;20218;-47
2022/10/04 07:21:48;;;;;;;9.50;6.57;;;12.00;99.90;;;;;;5057022;28;20202;-45
2022/10/04 07:24:23;;;;;;;12.00;7.37;;;12.10;99.90;;;;;;5063995;28;20198;-49
2022/10/04 07:26:52;;;;;;;14.90;7.30;;;12.10;99.90;;;;;;5055957;28;20233;-47
2022/10/04 07:29:21;;;;;;;8.23;6.73;;;12.10;99.90;;;;;;5043969;28;20222;-44
2022/10/04 07:31:52;;;;;;;13.87;7.20;;;12.20;99.90;;;;;;5038110;28;20205;-47
2022/10/04 07:34:25;;;;;;;12.57;7.33;;;12.20;99.90;;;;;;5062534;28;20671;-44
2022/10/04 07:36:55;;;;;;;13.20;7.47;;;12.20;99.90;;;;;;5051124;28;20833;-46
2022/10/04 07:39:27;;;;;;;12.83;7.87;;;12.20;99.90;;;;;;5073522;28;20196;-46
2022/10/04 07:41:58;;;;;;;16.37;6.90;;;12.30;99.90;;;;;;5060220;28;20222;-45
2022/10/04 07:44:33;;;;;;;12.53;7.00;;;12.30;99.90;;;;;;5055958;28;20202;-44
2022/10/04 07:47:04;;;;;;;12.57;7.07;;;12.30;99.90;;;;;;5054317;28;20322;-47
2022/10/04 07:49:38;;;;;;;14.87;7.20;;;12.30;99.90;;;;;;5056162;28;20591;-49
2022/10/04 07:52:35;;;;;;;12.60;7.40;;;12.40;99.90;;;;;;5058754;28;20209;-47
2022/10/04 07:55:13;;;;;;;8.23;6.73;;;12.40;99.90;;;;;;5074768;28;20196;-44
2022/10/04 07:57:48;;;;;;;12.63;7.97;;;12.50;99.90;;;;;;5068684;28;20219;-48
2022/10/04 08:00:19;;;;;;;13.40;6.80;;;12.50;99.90;;;;;;5056859;28;20820;-44
2022/10/04 08:02:57;;;;;;;16.93;7.70;;;12.60;99.90;;;;;;5045554;28;20211;-49
2022/10/04 08:05:29;;;;;;;10.17;7.60;;;12.60;99.90;;;;;;5060986;28;20297;-44
2022/10/04 08:08:16;;;;;;;11.67;7.70;;;12.60;99.90;;;;;;5052774;28;21027;-46
2022/10/04 08:10:55;;;;;;;13.57;7.07;;;12.60;99.90;;;;;;5057562;28;20199;-46
2022/10/04 08:13:27;;;;;;;13.30;7.53;;;12.70;99.90;;;;;;5062482;28;20190;-44
2022/10/04 08:16:01;;;;;;;15.23;7.83;;;12.80;99.90;;;;;;5062691;28;20207;-45
2022/10/04 08:18:40;;;;;;;14.60;7.13;;;12.80;99.90;;;;;;5052610;28;20584;-44
2022/10/04 08:21:08;;;;;;;17.10;9.33;;;12.90;99.90;;;;;;5057163;28;20197;-44
2022/10/04 08:24:00;;;;;;;18.10;7.70;;;12.90;99.90;;;;;;5070117;28;20204;-48
2022/10/04 08:26:43;;;;;;;12.87;7.50;;;13.00;99.90;;;;;;5055870;28;20206;-44
2022/10/04 08:29:42;;;;;;;13.97;7.67;;;13.10;99.90;;;;;;5064277;28;20309;-48
2022/10/04 08:32:23;;;;;;;12.40;8.10;;;13.10;99.90;;;;;;5051572;28;20283;-44
2022/10/04 08:35:10;;;;;;;17.90;7.73;;;13.20;99.90;;;;;;5043763;28;20203;-49
2022/10/04 08:37:52;;;;;;;15.67;7.80;;;13.20;99.90;;;;;;5056172;28;20309;-47
2022/10/04 08:40:45;;;;;;;12.80;6.90;;;13.20;99.90;;;;;;5049690;28;20290;-44
2022/10/04 08:43:45;;;;;;;11.57;7.77;;;13.30;99.90;;;;;;5053307;28;20442;-47
2022/10/04 08:46:43;;;;;;;15.10;7.50;;;13.40;99.90;;;;;;5073607;28;20205;-44
2022/10/04 08:49:34;;;;;;;13.40;7.47;;;13.40;99.90;;;;;;5041515;28;20287;-47
2022/10/04 08:52:38;;;;;;;15.77;6.60;;;13.50;99.90;;;;;;5062795;28;20213;-50
2022/10/04 08:55:41;;;;;;;11.10;6.67;;;13.60;99.90;;;;;;5065250;28;20217;-50
2022/10/04 08:58:45;;;;;;;14.03;7.60;;;13.60;99.90;;;;;;5049408;28;20256;-48
2022/10/04 09:01:42;;;;;;;10.67;6.53;;;13.70;99.90;;;;;;5044278;28;20218;-45
2022/10/04 09:04:46;;;;;;;10.30;6.90;;;13.70;99.90;;;;;;5037798;28;20202;-48
2022/10/04 09:07:37;;;;;;;14.27;8.47;;;13.80;99.90;;;;;;5046174;28;20345;-48
2022/10/04 09:10:32;;;;;;;13.83;6.80;;;13.90;99.90;;;;;;5068065;28;20219;-46
2022/10/04 09:13:33;;;;;;;9.60;6.53;;;13.90;99.90;;;;;;5052380;28;20978;-49
2022/10/04 09:16:15;;;;;;;12.30;6.20;;;14.00;99.90;;;;;;5048146;28;20644;-46
2022/10/04 09:18:50;;;;;;;11.83;6.60;;;14.00;99.90;;;;;;5059207;28;20306;-44
2022/10/04 09:21:27;;;;;;;13.50;7.33;;;14.10;99.90;;;;;;5054943;28;20971;-44
2022/10/04 09:24:33;;;;;;;9.17;5.80;;;14.10;99.90;;;;;;5058401;28;20615;-44
2022/10/04 09:27:17;;;;;;;7.13;5.30;;;14.20;99.90;;;;;;5061269;28;20198;-49
2022/10/04 09:30:03;;;;;;;12.57;5.50;;;14.30;99.90;;;;;;5063254;28;20241;-50
2022/10/04 09:33:04;;;;;;;11.70;5.83;;;14.40;99.90;;;;;;5083578;28;20240;-48
2022/10/04 09:36:07;;;;;;;12.23;5.60;;;14.40;99.90;;;;;;5061300;28;20251;-44
2022/10/04 09:38:58;;;;;;;13.63;7.13;;;14.50;99.90;;;;;;5058944;28;20225;-48
2022/10/04 09:41:41;;;;;;;9.90;5.97;;;14.50;99.90;;;;;;5054768;28;20223;-46
2022/10/04 09:44:55;;;;;;;12.87;6.50;;;14.60;99.90;;;;;;5047415;28;20948;-45
2022/10/04 09:47:45;;;;;;;10.50;5.00;;;14.60;99.90;;;;;;5050723;28;20227;-46
2022/10/04 09:50:40;;;;;;;8.70;5.33;;;14.70;99.90;;;;;;5054420;28;20226;-45
2022/10/04 09:53:34;;;;;;;11.30;5.63;;;14.80;99.90;;;;;;5030093;28;20228;-46
2022/10/04 09:56:25;;;;;;;12.43;6.57;;;14.80;99.90;;;;;;5066711;28;20758;-45
2022/10/04 09:59:17;;;;;;;10.77;6.60;;;14.80;99.90;;;;;;5048703;28;20540;-49
2022/10/04 10:01:57;;;;;;;9.53;6.43;;;14.80;99.90;;;;;;5060338;28;20293;-44
2022/10/04 10:04:43;;;;;;;11.37;5.73;;;14.90;99.90;;;;;;5069403;28;20872;-45
2022/10/04 10:07:32;;;;;;;16.03;6.67;;;15.00;99.90;;;;;;5061996;28;20231;-45
2022/10/04 10:16:06;;;;;;;10.23;6.53;;;15.10;99.90;;;;;;5058584;28;20198;-44
2022/10/04 10:18:47;;;;;;;12.33;6.20;;;15.00;99.90;;;;;;5060631;28;20244;-46
2022/10/04 10:21:32;;;;;;;11.63;6.20;;;15.00;99.90;;;;;;5066138;28;20268;-46
2022/10/04 10:24:42;;;;;;;12.13;6.47;;;14.90;99.90;;;;;;5049060;28;20209;-45
2022/10/04 10:27:31;;;;;;;12.77;6.97;;;15.00;99.90;;;;;;5069551;28;20713;-44
2022/10/04 10:30:16;;;;;;;11.77;6.33;;;15.00;99.90;;;;;;5050715;28;20229;-49
2022/10/04 10:33:11;;;;;;;8.27;5.90;;;15.20;99.90;;;;;;5060642;28;20695;-45
2022/10/04 10:35:51;;;;;;;14.33;5.97;;;15.30;99.90;;;;;;5051402;28;20229;-48
2022/10/04 10:38:37;;;;;;;9.97;5.47;;;15.40;99.90;;;;;;5068309;28;20217;-46
2022/10/04 10:41:20;;;;;;;6.20;5.40;;;15.60;99.90;;;;;;5050750;28;20238;-45
2022/10/04 10:44:06;;;;;;;13.33;6.87;;;15.60;99.90;;;;;;5050212;28;20915;-46
2022/10/04 10:46:52;;;;;;;14.50;6.37;;;15.70;99.90;;;;;;5054960;28;20202;-47
2022/10/04 10:49:43;;;;;;;12.30;6.50;;;15.70;99.90;;;;;;5063500;28;20229;-48
2022/10/04 10:52:44;;;;;;;13.13;6.20;;;15.90;99.90;;;;;;5045849;28;20195;-45
2022/10/04 10:55:29;;;;;;;10.53;6.20;;;16.00;99.90;;;;;;5060799;28;20675;-45
2022/10/04 10:58:24;;;;;;;11.37;5.60;;;16.00;99.90;;;;;;5070360;28;20218;-46
2022/10/04 11:01:02;;;;;;;10.70;6.67;;;16.10;99.90;;;;;;5047241;28;20206;-47
2022/10/04 11:03:42;;;;;;;10.70;6.57;;;;;;;;;;5052545;28;20190;-45
2022/10/04 11:06:24;;;;;;;9.67;5.97;;;;;;;;;;5057896;28;20214;-44
2022/10/04 11:09:12;;;;;;;11.10;6.60;;;;;;;;;;5058179;28;20311;-45
2022/10/04 11:12:28;;;;;;;14.90;6.73;;;16.50;99.90;;;;;;5046651;28;20264;-46
2022/10/04 11:15:37;;;;;;;15.03;6.80;;;16.50;99.90;;;;;;5054850;28;20207;-45
2022/10/04 11:18:26;;;;;;;8.07;5.77;;;;;;;;;;5055581;28;20257;-48
2022/10/04 11:21:07;;;;;;;17.27;7.63;;;;;;;;;;5069647;28;20194;-49
2022/10/04 11:23:58;;;;;;;10.00;5.97;;;;;;;;;;5054233;28;20210;-45
2022/10/04 11:26:46;;;;;;;9.93;6.17;;;;;;;;;;5040977;28;21012;-44
2022/10/04 11:29:19;;;;;;;8.73;5.93;;;;;;;;;;5049824;28;20850;-44
2022/10/04 11:32:01;;;;;;;8.33;5.57;;;;;;;;;;5056143;28;20690;-48
2022/10/04 11:35:02;;;;;;;10.90;6.17;;;;;;;;;;5048289;28;20190;-45
2022/10/04 11:37:42;;;;;;;10.80;5.17;;;;;;;;;;5052914;28;20974;-45
2022/10/04 11:40:24;;;;;;;14.10;5.60;;;;;;;;;;5053528;28;20197;-48
2022/10/04 11:43:11;;;;;;;6.80;4.87;;;;;;;;;;5053133;28;20206;-48
2022/10/04 11:45:55;;;;;;;9.33;4.50;;;;;;;;;;5062638;28;20198;-44
2022/10/04 11:48:31;;;;;;;13.33;4.73;;;;;;;;;;5053594;28;20226;-44
2022/10/04 11:51:33;;;;;;;6.47;3.93;;;17.10;99.90;;;;;;5059510;28;20281;-48
2022/10/04 11:54:39;;;;;;;5.53;3.33;;;17.10;99.90;;;;;;5068983;28;20194;-47
2022/10/04 11:57:20;;;;;;;5.30;3.33;;;17.10;99.90;;;;;;5044726;28;20659;-45
2022/10/04 11:59:59;;;;;;;8.13;4.63;;;17.00;99.90;;;;;;5059936;28;20187;-45
2022/10/04 12:03:00;;;;;;;11.57;3.97;;;17.00;99.90;;;;;;5051414;28;20211;-52
2022/10/04 12:05:48;;;;;;;8.17;3.53;;;17.10;99.90;;;;;;5043368;28;20249;-45
2022/10/04 12:08:26;;;;;;;8.67;4.10;;;17.10;99.90;;;;;;5038726;28;20207;-51
2022/10/04 12:11:26;;;;;;;10.67;3.80;;;17.00;99.90;;;;;;5048166;28;20329;-48
2022/10/04 12:14:16;;;;;;;8.10;3.57;;;17.00;99.90;;;;;;5048236;28;20275;-46
2022/10/04 12:17:07;;;;;;;6.30;3.07;;;17.00;99.90;;;;;;5064752;28;20292;-44
2022/10/04 12:20:17;;;;;;;6.10;3.73;;;16.90;99.90;;;;;;5049933;28;20263;-46
2022/10/04 12:23:17;;;;;;;7.73;2.83;;;17.10;99.90;;;;;;5057980;28;20203;-45
2022/10/04 12:26:21;;;;;;;9.13;3.57;;;17.10;99.90;;;;;;5061621;28;20211;-46
2022/10/04 12:29:16;;;;;;;8.60;3.27;;;17.20;99.90;;;;;;5049778;28;20233;-46
2022/10/04 12:31:45;;;;;;;9.47;2.23;;;17.40;99.90;;;;;;5060829;28;20212;-47
2022/10/04 12:34:18;;;;;;;10.23;2.60;;;;;;;;;;5056517;28;20929;-44
2022/10/04 12:37:00;;;;;;;9.93;2.70;;;;;;;;;;5059367;28;20252;-45
2022/10/04 12:39:31;;;;;;;7.03;2.50;;;;;;;;;;5058887;28;20198;-44
2022/10/04 12:42:17;;;;;;;6.57;2.77;;;17.80;99.90;;;;;;5051976;28;20460;-47
2022/10/04 12:44:58;;;;;;;5.50;2.40;;;17.80;99.90;;;;;;5050661;28;20198;-48
2022/10/04 12:47:50;;;;;;;7.87;2.67;;;17.70;99.90;;;;;;5058826;28;20219;-47
2022/10/04 12:50:28;;;;;;;8.37;2.37;;;17.70;99.90;;;;;;5079316;28;20241;-44
2022/10/04 12:53:06;;;;;;;5.80;2.50;;;17.60;99.90;;;;;;5064290;28;20194;-44
2022/10/04 12:55:51;;;;;;;8.87;2.60;;;17.70;99.90;;;;;;5079974;28;20205;-48
2022/10/04 12:58:25;;;;;;;5.60;2.00;;;17.80;99.90;;;;;;5055478;28;20234;-45
2022/10/04 13:00:58;;;;;;;5.43;2.10;;;17.80;99.90;;;;;;5068414;28;20195;-47
2022/10/04 13:03:42;;;;;;;7.03;2.83;;;17.80;99.90;;;;;;5056533;28;20269;-48
2022/10/04 13:06:18;;;;;;;11.33;3.37;;;18.00;99.90;;;;;;5053131;28;20289;-45
2022/10/04 13:09:01;;;;;;;4.33;2.50;;;;;;;;;;5063206;28;20321;-47
2022/10/04 13:11:39;;;;;;;3.13;2.43;;;;;;;;;;5060372;28;20206;-45
2022/10/04 13:14:29;;;;;;;5.37;2.57;;;18.20;99.90;;;;;;5052979;28;20275;-45
2022/10/04 13:17:03;;;;;;;4.80;2.13;;;18.30;99.90;;;;;;5067565;28;20198;-48
2022/10/04 13:19:34;;;;;;;5.80;3.10;;;;;;;;;;5055647;28;20206;-46
2022/10/04 13:22:07;;;;;;;7.33;2.60;;;;;;;;;;5068459;28;20210;-45
2022/10/04 13:24:55;;;;;;;6.07;2.27;;;19.70;99.90;;;;;;5072743;28;20183;-45
2022/10/04 13:27:27;;;;;;;6.87;2.17;;;;;;;;;;5084212;28;20757;-49
2022/10/04 13:30:01;;;;;;;5.57;2.00;;;;;;;;;;5064027;28;20728;-45
2022/10/04 13:32:30;;;;;;;7.37;2.60;;;;;;;;;;5067243;28;20189;-45
2022/10/04 13:35:01;;;;;;;4.77;2.27;;;;;;;;;;5058121;28;20203;-44
2022/10/04 13:37:34;;;;;;;5.63;2.57;;;;;;;;;;5061611;28;20203;-44
2022/10/04 13:40:14;;;;;;;4.27;2.00;;;;;;;;;;5065827;28;20215;-46
2022/10/04 13:42:54;;;;;;;4.03;1.90;;;;;;;;;;5064594;28;20186;-44
2022/10/04 13:45:27;;;;;;;6.33;2.77;;;;;;;;;;5048259;28;20194;-46
2022/10/04 13:48:01;;;;;;;5.83;2.90;;;;;;;;;;5068775;28;20221;-44
2022/10/04 13:50:33;;;;;;;6.73;2.53;;;;;;;;;;5056939;28;20586;-44
2022/10/04 13:58:47;;;;;;;3.80;2.22;;;;;;;;;;5083137;28;20210;-49
2022/10/04 14:01:39;;;;;;;4.85;2.38;;;;;;;;;;5066092;28;21019;-46
2022/10/04 14:04:14;;;;;;;3.22;2.60;;;;;;;;;;5070957;28;20240;-44
2022/10/04 14:07:06;;;;;;;4.10;1.77;;;;;;;;;;5055043;28;20206;-48
2022/10/04 14:09:45;;;;;;;5.50;2.15;;;;;;;;;;5063279;28;20203;-46
2022/10/04 14:12:31;;;;;;;4.30;2.63;;;;;;;;;;5064661;28;20186;-44
2022/10/04 14:15:16;;;;;;;7.55;2.80;;;;;;;;;;5060691;28;20194;-49